Time;durP1;ratioP1;P1;durP2;ratioP2;P2;SDS_P1;SDS_P2;PMS_P1;PMS_P2;Temp;Humidity;BMP_temperature;BMP_pressure;BME280_temperature;BME280_humidity;BME280_pressure;Samples;Min_cycle;Max_cycle;Signal;HPM_P1;HPM_P2
2022/06/17 00:01:06;;;;;;;29.52;6.65;;;;;;;16.81;100.00;98501.94;5007896;28;20049;-60
2022/06/17 00:03:33;;;;;;;28.88;6.97;;;;;;;16.90;100.00;98506.72;5009696;28;20061;-61
2022/06/17 00:06:01;;;;;;;39.10;7.35;;;;;;;16.98;100.00;98509.72;5009282;28;20078;-61
2022/06/17 00:08:49;;;;;;;26.08;5.93;;;;;;;16.69;100.00;98507.00;5007026;28;20669;-60
2022/06/17 00:11:24;;;;;;;31.95;6.50;;;;;;;16.81;100.00;98504.59;5009811;28;20259;-60
2022/06/17 00:13:49;;;;;;;30.63;6.60;;;;;;;17.07;100.00;98501.28;5007385;28;21002;-61
2022/06/17 00:16:16;;;;;;;23.98;6.07;;;;;;;16.96;100.00;98490.53;5017071;28;20072;-59
2022/06/17 00:18:42;;;;;;;36.67;6.75;;;;;;;16.98;100.00;98498.34;5008674;28;20522;-58
2022/06/17 00:21:22;;;;;;;29.55;6.68;;;;;;;16.93;100.00;98507.38;5009742;28;20042;-58
2022/06/17 00:23:48;;;;;;;27.05;6.07;;;;;;;17.08;100.00;98508.25;5012418;28;20073;-60
2022/06/17 00:26:13;;;;;;;31.63;5.93;;;;;;;17.63;100.00;98511.13;5011241;28;20038;-59
2022/06/17 00:28:39;;;;;;;36.40;6.97;;;;;;;16.76;100.00;98516.25;5011981;28;20029;-59
2022/06/17 00:31:04;;;;;;;32.03;6.97;;;;;;;16.54;100.00;98521.03;5009896;28;20446;-59
2022/06/17 00:33:29;;;;;;;29.33;6.13;;;;;;;16.92;100.00;98518.00;5013380;28;20029;-59
2022/06/17 00:35:56;;;;;;;29.10;6.70;;;;;;;16.78;100.00;98518.81;5010065;28;20046;-59
2022/06/17 00:38:25;;;;;;;30.42;6.78;;;;;;;16.43;100.00;98507.63;5013614;28;20057;-58
2022/06/17 00:40:52;;;;;;;33.67;6.95;;;;;;;16.40;100.00;98519.19;5010434;28;20041;-58
2022/06/17 00:43:31;;;;;;;36.33;7.03;;;;;;;16.64;100.00;98521.38;5011730;28;20652;-58
2022/06/17 00:46:07;;;;;;;32.53;7.10;;;;;;;16.40;100.00;98527.09;5013261;28;20121;-60
2022/06/17 00:48:44;;;;;;;30.98;7.18;;;;;;;16.46;100.00;98525.91;5009987;28;20040;-60
2022/06/17 00:51:19;;;;;;;28.90;6.55;;;;;;;16.22;100.00;98531.59;5008981;28;20045;-61
2022/06/17 00:54:22;;;;;;;29.27;7.03;;;;;;;16.18;100.00;98530.09;5012240;28;20084;-60
2022/06/17 00:56:48;;;;;;;28.20;6.47;;;;;;;16.25;100.00;98531.44;4996139;28;20076;-59
2022/06/17 00:59:13;;;;;;;27.95;6.63;;;;;;;16.36;100.00;98523.78;5013426;28;20057;-60
2022/06/17 01:02:05;;;;;;;24.73;6.40;;;;;;;16.29;100.00;98521.59;5008846;28;20049;-58
2022/06/17 01:04:40;;;;;;;37.90;7.50;;;;;;;16.06;100.00;98530.75;5012628;28;20152;-59
2022/06/17 01:07:11;;;;;;;28.15;6.85;;;;;;;16.16;100.00;98526.69;5013425;28;20606;-59
2022/06/17 01:09:58;;;;;;;38.22;7.90;;;;;;;16.25;100.00;98523.53;5011149;28;20017;-58
2022/06/17 01:12:46;;;;;;;35.15;7.22;;;;;;;16.05;100.00;98518.53;5009801;28;20069;-59
2022/06/17 01:15:17;;;;;;;33.70;7.20;;;;;;;15.92;100.00;98519.22;5010605;28;20764;-58
2022/06/17 01:17:43;;;;;;;33.90;7.35;;;;;;;16.42;100.00;98516.47;5011578;28;20063;-59
2022/06/17 01:20:10;;;;;;;48.90;8.77;;;;;;;16.62;100.00;98513.56;5010064;28;20064;-60
2022/06/17 01:22:51;;;;;;;33.88;7.22;;;;;;;16.45;100.00;98511.03;5010941;28;20041;-58
2022/06/17 01:25:16;;;;;;;30.15;6.72;;;;;;;16.84;100.00;98512.34;5009869;28;20022;-58
2022/06/17 01:27:48;;;;;;;40.55;8.05;;;;;;;15.75;100.00;98532.41;5011207;28;20028;-58
2022/06/17 01:30:20;;;;;;;31.05;7.18;;;;;;;15.23;100.00;98547.31;5006055;28;20026;-58
2022/06/17 01:33:00;;;;;;;33.90;7.60;;;;;;;15.09;100.00;98555.09;5011148;28;20056;-59
2022/06/17 01:35:33;;;;;;;25.95;6.93;;;;;;;15.11;100.00;98552.34;5009777;28;20041;-59
2022/06/17 01:37:59;;;;;;;30.02;7.03;;;;;;;15.08;100.00;98557.78;5011342;28;20033;-59
2022/06/17 01:40:28;;;;;;;29.70;7.40;;;;;;;14.77;100.00;98549.63;5008531;28;20031;-58
2022/06/17 01:42:54;;;;;;;36.45;7.85;;;;;;;15.09;100.00;98546.31;5010491;28;20157;-58
2022/06/17 01:45:20;;;;;;;31.17;7.65;;;;;;;15.14;100.00;98534.66;5009581;28;20033;-58
2022/06/17 01:47:46;;;;;;;34.05;8.10;;;;;;;15.33;100.00;98525.81;5011230;28;20034;-59
2022/06/17 01:50:16;;;;;;;44.58;8.40;;;;;;;15.51;100.00;98524.88;5007458;28;20034;-60
2022/06/17 01:52:52;;;;;;;34.35;7.38;;;;;;;15.45;100.00;98525.19;5009758;28;20589;-58
2022/06/17 01:55:27;;;;;;;34.22;7.70;;;;;;;15.08;100.00;98531.50;5011291;28;20052;-58
2022/06/17 01:57:58;;;;;;;37.15;8.13;;;;;;;14.69;100.00;98546.56;5009387;28;20426;-59
2022/06/17 02:00:26;;;;;;;35.83;7.55;;;;;;;14.98;100.00;98546.88;5009015;28;20560;-58
2022/06/17 02:03:07;;;;;;;33.17;7.40;;;;;;;15.06;100.00;98542.09;5009688;28;20482;-58
2022/06/17 02:05:34;;;;;;;30.55;7.68;;;;;;;14.93;100.00;98538.38;5010726;28;20038;-58
2022/06/17 02:08:02;;;;;;;30.80;7.22;;;;;;;15.13;100.00;98525.09;5010393;28;20064;-58
2022/06/17 02:10:41;;;;;;;36.22;7.40;;;;;;;14.83;100.00;98525.72;5009747;28;20061;-58
2022/06/17 02:13:09;;;;;;;32.50;7.63;;;;;;;15.11;100.00;98519.06;5010244;28;20419;-59
2022/06/17 02:15:35;;;;;;;32.67;7.25;;;;;;;15.23;100.00;98515.78;5008729;28;20041;-58
2022/06/17 02:18:05;;;;;;;26.25;5.80;;;;;;;15.79;100.00;98519.03;5007114;28;20112;-58
2022/06/17 02:20:30;;;;;;;30.58;7.03;;;;;;;14.73;100.00;98527.09;5008572;28;20120;-58
2022/06/17 02:22:57;;;;;;;31.63;7.22;;;;;;;14.29;100.00;98543.19;5010079;28;20694;-59
2022/06/17 02:25:26;;;;;;;31.75;7.68;;;;;;;14.30;100.00;98546.66;5009641;28;20021;-60
2022/06/17 02:27:55;;;;;;;37.15;7.20;;;;;;;14.33;100.00;98555.22;5008573;28;20057;-59
2022/06/17 02:30:21;;;;;;;34.60;7.60;;;;;;;14.23;100.00;98559.22;5009283;28;20079;-59
2022/06/17 02:32:48;;;;;;;28.42;6.60;;;;;;;14.32;100.00;98566.66;5010083;28;20053;-60
2022/06/17 02:35:50;;;;;;;25.80;6.20;;;;;;;14.70;100.00;98547.41;5008102;28;20562;-59
2022/06/17 02:38:19;;;;;;;32.53;6.80;;;;;;;14.82;100.00;98546.78;5004537;28;20046;-59
2022/06/17 02:40:56;;;;;;;31.27;6.65;;;;;;;14.29;100.00;98548.44;5007853;28;20420;-59
2022/06/17 02:43:26;;;;;;;27.15;6.53;;;;;;;14.07;100.00;98538.94;5009622;28;20609;-59
2022/06/17 02:46:00;;;;;;;29.42;6.78;;;;;;;14.08;100.00;98545.91;5007284;28;20519;-59
2022/06/17 02:48:31;;;;;;;32.17;7.45;;;;;;;14.06;100.00;98558.25;5008941;28;20029;-59
2022/06/17 02:51:00;;;;;;;28.50;6.68;;;;;;;14.12;100.00;98557.09;5008805;28;20042;-60
2022/06/17 02:53:36;;;;;;;27.92;6.35;;;;;;;14.03;100.00;98553.13;5008547;28;20139;-59
2022/06/17 02:56:13;;;;;;;32.67;6.70;;;;;;;13.72;100.00;98563.31;5007071;28;20149;-59
2022/06/17 02:58:41;;;;;;;39.58;8.02;;;;;;;13.83;100.00;98567.16;5009859;28;20499;-60
2022/06/17 03:01:26;;;;;;;32.85;7.45;;;;;;;13.51;100.00;98571.22;5008764;28;20149;-59
2022/06/17 03:03:54;;;;;;;31.70;7.28;;;;;;;13.75;100.00;98571.03;5010405;28;20490;-58
2022/06/17 03:06:28;;;;;;;31.88;7.50;;;;;;;13.86;100.00;98558.31;5009477;28;20042;-58
2022/06/17 03:08:56;;;;;;;34.53;7.95;;;;;;;13.96;100.00;98556.09;5006117;28;20064;-59
2022/06/17 03:11:22;;;;;;;27.15;7.07;;;;;;;13.96;100.00;98562.19;5008901;28;20041;-60
2022/06/17 03:13:51;;;;;;;29.85;6.50;;;;;;;14.04;100.00;98564.47;5008552;28;20130;-61
2022/06/17 03:16:19;;;;;;;30.50;6.60;;;;;;;14.20;100.00;98565.47;5008679;28;20042;-61
2022/06/17 03:18:47;;;;;;;43.15;7.80;;;;;;;14.54;100.00;98555.13;5007745;28;20029;-60
2022/06/17 03:21:16;;;;;;;27.13;7.13;;;;;;;14.21;100.00;98563.72;5008021;28;20056;-60
2022/06/17 03:23:54;;;;;;;31.65;7.00;;;;;;;14.17;100.00;98564.75;5008846;28;20037;-61
2022/06/17 03:26:27;;;;;;;33.92;7.20;;;;;;;14.30;100.00;98571.16;5008372;28;20081;-60
2022/06/17 03:28:52;;;;;;;33.30;7.43;;;;;;;13.77;100.00;98567.44;5009266;28;20029;-59
2022/06/17 03:31:36;;;;;;;27.95;7.40;;;;;;;13.82;100.00;98569.84;5009273;28;20033;-58
2022/06/17 03:34:07;;;;;;;35.88;7.68;;;;;;;14.05;100.00;98569.66;5007422;28;20529;-59
2022/06/17 03:36:32;;;;;;;27.55;7.40;;;;;;;13.64;100.00;98580.25;5007719;28;20041;-59
2022/06/17 03:39:00;;;;;;;30.85;7.28;;;;;;;13.43;100.00;98581.16;5009765;28;20590;-58
2022/06/17 03:41:33;;;;;;;26.80;7.05;;;;;;;13.66;100.00;98588.88;5009664;28;20033;-59
2022/06/17 03:44:01;;;;;;;25.55;7.18;;;;;;;13.29;100.00;98595.69;5005567;28;20029;-59
2022/06/17 03:46:32;;;;;;;26.15;7.22;;;;;;;13.53;100.00;98594.72;5008704;28;20038;-59
2022/06/17 03:49:04;;;;;;;22.35;7.15;;;;;;;13.62;100.00;98605.69;5009155;28;20022;-59
2022/06/17 03:51:30;;;;;;;27.15;7.70;;;;;;;13.40;100.00;98597.88;5006494;28;20659;-59
2022/06/17 03:53:55;;;;;;;30.70;7.60;;;;;;;13.58;100.00;98609.34;5009546;28;20692;-61
2022/06/17 03:56:25;;;;;;;28.90;7.32;;;;;;;13.72;100.00;98607.88;5013073;28;20064;-61
2022/06/17 03:58:52;;;;;;;27.30;6.97;;;;;;;13.97;100.00;98616.38;5012207;28;20574;-62
2022/06/17 04:01:42;;;;;;;30.05;7.05;;;;;;;14.02;100.00;98624.88;5012279;28;20427;-60
2022/06/17 04:04:29;;;;;;;28.90;6.78;;;;;;;14.67;100.00;98621.94;5013003;28;20038;-60
2022/06/17 04:06:56;;;;;;;24.23;6.20;;;;;;;15.00;100.00;98618.59;5012122;28;20407;-60
2022/06/17 04:09:37;;;;;;;28.83;6.80;;;;;;;14.82;100.00;98626.44;5009744;28;20026;-61
2022/06/17 04:12:19;;;;;;;30.15;7.18;;;;;;;15.20;100.00;98620.19;5012370;28;20037;-60
2022/06/17 04:15:13;;;;;;;24.75;6.18;;;;;;;16.06;100.00;98614.97;5014158;28;20112;-61
2022/06/17 04:17:45;;;;;;;27.13;6.70;;;;;;;16.76;100.00;98629.53;5012688;28;20666;-60
2022/06/17 04:20:25;;;;;;;37.55;8.05;;;;;;;16.65;100.00;98618.75;5009759;28;20873;-60
2022/06/17 04:22:54;;;;;;;25.13;6.60;;;;;;;17.07;100.00;98627.78;5013251;28;20427;-61
2022/06/17 04:26:05;;;;;;;25.00;6.57;;;;;;;17.66;100.00;98621.72;5011754;28;20022;-61
2022/06/17 04:28:54;;;;;;;27.45;6.57;;;;;;;18.66;100.00;98618.22;5011102;28;20112;-61
2022/06/17 04:31:23;;;;;;;19.75;5.65;;;;;;;19.09;100.00;98619.88;5009783;28;20064;-59
2022/06/17 04:33:54;;;;;;;23.15;6.10;;;;;;;18.27;100.00;98625.94;5012191;28;20021;-59
2022/06/17 04:36:25;;;;;;;22.40;6.35;;;;;;;18.17;100.00;98626.59;5010343;28;20091;-59
2022/06/17 04:38:58;;;;;;;22.30;6.13;;;;;;;17.44;100.00;98628.31;5012123;28;20396;-61
2022/06/17 04:41:29;;;;;;;31.17;7.10;;;;;;;17.95;100.00;98621.78;5008845;28;20289;-59
2022/06/17 04:43:58;;;;;;;24.33;6.78;;;;;;;19.25;100.00;98618.75;5011753;28;20431;-59
2022/06/17 04:46:36;;;;;;;23.67;6.65;;;;;;;18.84;100.00;98619.69;5011775;28;20111;-59
2022/06/17 04:49:04;;;;;;;22.85;6.20;;;;;;;19.37;100.00;98618.88;5013179;28;20108;-59
2022/06/17 04:51:31;;;;;;;24.70;6.38;;;;;;;19.88;100.00;98621.59;5010670;28;20043;-62
2022/06/17 04:53:57;;;;;;;21.13;5.95;;;;;;;20.46;100.00;98619.31;5012439;28;20026;-60
2022/06/17 04:56:36;;;;;;;17.92;5.70;;;;;;;20.96;100.00;98625.41;5011800;28;20063;-59
2022/06/17 04:59:35;;;;;;;16.63;5.80;;;;;;;22.02;98.08;98627.16;5011615;28;20033;-59
2022/06/17 05:02:06;;;;;;;13.73;5.45;;;;;;;22.28;91.61;98630.47;5009973;28;20075;-60
2022/06/17 05:04:32;;;;;;;21.00;5.78;;;;;;;23.20;81.04;98624.00;5013570;28;20029;-59
2022/06/17 05:06:57;;;;;;;21.40;6.45;;;;;;;24.56;68.61;98629.25;5009622;28;20099;-61
2022/06/17 05:09:28;;;;;;;21.45;5.82;;;;;;;23.37;71.55;98631.41;5012381;28;20026;-60
2022/06/17 05:11:59;;;;;;;22.50;5.90;;;;;;;22.28;90.69;98632.28;5010008;28;20472;-60
2022/06/17 05:14:45;;;;;;;17.00;6.03;;;;;;;23.26;82.35;98629.63;5011229;28;20064;-59
2022/06/17 05:17:10;;;;;;;20.42;6.15;;;;;;;22.78;78.40;98645.13;5010251;28;20025;-59
2022/06/17 05:19:36;;;;;;;20.02;6.20;;;;;;;23.77;74.33;98640.50;5009469;28;20029;-59
2022/06/17 05:22:09;;;;;;;23.77;6.65;;;;;;;24.30;68.08;98642.19;5011723;28;20044;-59
2022/06/17 05:24:35;;;;;;;19.63;6.55;;;;;;;25.32;63.77;98645.53;5012719;28;20044;-58
2022/06/17 05:27:00;;;;;;;21.30;6.38;;;;;;;26.32;59.68;98649.56;5010188;28;20339;-60
2022/06/17 05:29:25;;;;;;;17.23;5.78;;;;;;;25.02;61.77;98652.66;5011749;28;20067;-60
2022/06/17 05:31:52;;;;;;;16.60;5.78;;;;;;;26.95;54.73;98647.16;5009413;28;20061;-59
2022/06/17 05:34:18;;;;;;;18.83;6.10;;;;;;;26.12;53.52;98648.78;5011130;28;20037;-59
2022/06/17 05:36:43;;;;;;;24.30;6.32;;;;;;;26.12;55.09;98661.31;5010567;28;20542;-59
2022/06/17 05:39:08;;;;;;;20.90;6.13;;;;;;;26.20;53.81;98664.09;5009755;28;20622;-59
2022/06/17 05:41:34;;;;;;;13.07;4.93;;;;;;;26.68;53.60;98657.72;5010375;28;20749;-60
2022/06/17 05:44:00;;;;;;;14.90;5.43;;;;;;;28.27;49.70;98649.88;5009927;28;20112;-61
2022/06/17 05:46:25;;;;;;;18.02;5.45;;;;;;;29.53;45.78;98662.50;5010443;28;20574;-59
2022/06/17 05:48:51;;;;;;;17.73;5.57;;;;;;;27.80;48.32;98669.84;5010159;28;20099;-59
2022/06/17 05:51:16;;;;;;;16.17;5.75;;;;;;;27.34;49.37;98673.66;5010308;28;20396;-60
2022/06/17 05:53:42;;;;;;;14.38;5.00;;;;;;;28.16;47.49;98675.13;5012226;28;20040;-61
2022/06/17 05:56:07;;;;;;;16.02;4.80;;;;;;;28.82;45.00;98679.00;5008617;28;20041;-60
2022/06/17 05:58:32;;;;;;;14.57;4.95;;;;;;;29.13;44.57;98677.53;5008889;28;20457;-60
2022/06/17 06:00:58;;;;;;;16.02;4.70;;;;;;;30.23;40.64;98680.75;5010278;28;20045;-61
2022/06/17 06:03:27;;;;;;;12.63;4.90;;;;;;;30.74;40.00;98677.75;5011334;28;20033;-60
2022/06/17 06:05:52;;;;;;;12.23;4.45;;;;;;;27.26;44.48;98683.28;5017812;28;20880;-59
2022/06/17 06:08:18;;;;;;;12.55;4.43;;;;;;;29.78;41.05;98676.81;5009319;28;20033;-57
2022/06/17 06:10:44;;;;;;;18.63;4.90;;;;;;;28.71;43.03;98679.28;5008756;28;20045;-60
2022/06/17 06:13:22;;;;;;;11.73;3.95;;;;;;;29.50;41.31;98678.94;5011146;28;20033;-59
2022/06/17 06:15:49;;;;;;;12.45;4.38;;;;;;;29.39;41.96;98682.81;5010111;28;20037;-61
2022/06/17 06:18:19;;;;;;;11.63;4.15;;;;;;;31.08;38.85;98680.13;5008372;28;20047;-60
2022/06/17 06:20:44;;;;;;;12.48;4.13;;;;;;;31.55;37.56;98683.69;5008969;28;20049;-60
2022/06/17 06:23:10;;;;;;;13.00;4.18;;;;;;;31.73;36.64;98685.22;5012833;28;20030;-60
2022/06/17 06:25:36;;;;;;;13.88;4.40;;;;;;;29.99;39.28;98689.72;5009785;28;20038;-59
2022/06/17 06:28:10;;;;;;;10.63;3.95;;;;;;;30.33;39.03;98691.38;5009899;28;20076;-59
2022/06/17 06:30:36;;;;;;;13.23;4.30;;;;;;;30.44;38.21;98701.75;5008009;28;20037;-60
2022/06/17 06:33:02;;;;;;;9.95;3.70;;;;;;;31.01;37.33;98699.84;5010026;28;20360;-60
2022/06/17 06:35:33;;;;;;;12.30;3.90;;;;;;;31.21;36.92;98706.47;5009973;28;20211;-60
2022/06/17 06:37:59;;;;;;;10.30;3.78;;;;;;;32.61;35.31;98697.19;5009397;28;20571;-59
2022/06/17 06:40:25;;;;;;;9.85;3.63;;;;;;;32.22;36.31;98692.84;5007110;28;20491;-59
2022/06/17 06:42:51;;;;;;;10.48;3.40;;;;;;;30.36;37.62;98696.38;5008322;28;20695;-59
2022/06/17 06:45:30;;;;;;;11.57;3.47;;;;;;;32.83;34.88;98688.09;5008606;28;20033;-61
2022/06/17 06:47:58;;;;;;;10.43;3.50;;;;;;;30.99;36.58;98696.47;5010083;28;20017;-60
2022/06/17 06:50:27;;;;;;;10.48;3.90;;;;;;;31.88;35.09;98702.28;5008649;28;20029;-61
2022/06/17 06:52:52;;;;;;;12.77;3.97;;;;;;;32.36;34.67;98699.28;5007110;28;20388;-61
2022/06/17 06:55:18;;;;;;;10.45;3.70;;;;;;;32.20;34.45;98705.69;5010077;28;20522;-61
2022/06/17 06:57:46;;;;;;;11.85;3.88;;;;;;;34.29;31.84;98704.06;5008667;28;20064;-62
2022/06/17 07:00:24;;;;;;;15.90;4.47;;;;;;;34.59;31.83;98706.53;5008967;28;20045;-61
2022/06/17 07:02:50;;;;;;;11.15;3.97;;;;;;;33.51;33.13;98698.63;5009511;28;20026;-61
2022/06/17 07:05:15;;;;;;;9.57;3.50;;;;;;;32.25;34.42;98712.22;5009316;28;20037;-60
2022/06/17 07:07:41;;;;;;;9.25;3.42;;;;;;;32.56;33.49;98710.38;5009682;28;20025;-60
2022/06/17 07:10:09;;;;;;;10.50;3.67;;;;;;;33.53;32.00;98703.84;5008313;28;20075;-57
2022/06/17 07:12:35;;;;;;;8.13;3.10;;;;;;;33.74;31.80;98705.72;5008128;28;20022;-61
2022/06/17 07:15:01;;;;;;;11.07;3.40;;;;;;;33.25;32.16;98712.72;5009139;28;20241;-60
2022/06/17 07:17:26;;;;;;;9.00;3.17;;;;;;;32.35;33.54;98714.66;5009472;28;20096;-60
2022/06/17 07:19:52;;;;;;;11.60;3.53;;;;;;;31.44;33.13;98714.56;5009411;28;20029;-60
2022/06/17 07:22:17;;;;;;;9.68;3.40;;;;;;;31.13;33.92;98717.28;5009216;28;20066;-60
2022/06/17 07:24:42;;;;;;;10.57;3.40;;;;;;;31.81;33.84;98717.50;5009698;28;20025;-59
2022/06/17 07:27:08;;;;;;;10.18;3.60;;;;;;;33.61;31.06;98714.53;5007912;28;20041;-59
2022/06/17 07:29:33;;;;;;;10.73;3.60;;;;;;;32.33;32.51;98714.00;5010641;28;20029;-60
2022/06/17 07:32:00;;;;;;;9.65;3.13;;;;;;;31.65;33.26;98724.72;5011680;28;20038;-61
2022/06/17 07:34:26;;;;;;;8.93;3.35;;;;;;;31.38;34.27;98725.25;5013701;28;20022;-59
2022/06/17 07:39:53;;;;;;;9.25;3.20;;;;;;;31.98;32.18;98723.59;5012880;28;20091;-62
2022/06/17 07:42:37;;;;;;;10.30;3.20;;;;;;;33.69;31.21;98719.84;5012428;28;20046;-60
2022/06/17 07:45:05;;;;;;;17.55;3.30;;;;;;;35.58;28.96;98720.66;5011781;28;20163;-60
2022/06/17 07:47:30;;;;;;;8.98;3.20;;;;;;;35.79;29.79;98725.94;5013520;28;21015;-60
2022/06/17 07:49:55;;;;;;;8.52;2.92;;;;;;;35.10;29.13;98719.69;5012371;28;20038;-61
2022/06/17 07:52:21;;;;;;;9.73;3.33;;;;;;;36.42;28.06;98716.50;5012037;28;20136;-60
2022/06/17 07:54:46;;;;;;;9.23;3.15;;;;;;;34.82;29.93;98727.94;5012142;28;20033;-60
2022/06/17 07:57:12;;;;;;;7.40;2.75;;;;;;;35.75;28.03;98722.00;5009457;28;20084;-61
2022/06/17 07:59:38;;;;;;;8.70;2.95;;;;;;;33.70;30.52;98728.78;5012474;28;20120;-60
2022/06/17 08:02:03;;;;;;;12.23;2.85;;;;;;;35.30;28.54;98730.63;5011668;28;20038;-59
2022/06/17 08:04:29;;;;;;;9.70;2.90;;;;;;;33.31;30.26;98724.66;5010232;28;20029;-59
2022/06/17 08:06:54;;;;;;;9.23;2.80;;;;;;;32.17;32.23;98728.50;5012882;28;20355;-60
2022/06/17 08:09:20;;;;;;;8.32;2.63;;;;;;;33.21;30.38;98733.91;5010138;28;20273;-60
2022/06/17 08:11:48;;;;;;;10.48;2.92;;;;;;;33.82;29.63;98729.94;5009801;28;20419;-59
2022/06/17 08:14:13;;;;;;;10.75;3.63;;;;;;;35.26;28.24;98734.81;5010155;28;20639;-60
2022/06/17 08:16:39;;;;;;;10.27;3.22;;;;;;;35.13;28.32;98730.16;5010819;28;20120;-61
2022/06/17 08:19:07;;;;;;;8.80;2.90;;;;;;;37.39;27.46;98731.00;5010575;28;20028;-59
2022/06/17 08:21:33;;;;;;;10.13;2.92;;;;;;;34.12;30.51;98729.78;5011100;28;20143;-59
2022/06/17 08:23:58;;;;;;;8.40;3.10;;;;;;;34.62;29.70;98732.41;5011768;28;20412;-60
2022/06/17 08:26:23;;;;;;;9.40;2.88;;;;;;;34.92;28.99;98735.69;5010820;28;20084;-59
2022/06/17 08:28:49;;;;;;;11.77;3.47;;;;;;;34.88;30.86;98727.13;5012462;28;20117;-59
2022/06/17 08:31:15;;;;;;;9.55;3.00;;;;;;;36.20;28.50;98730.34;5009314;28;20475;-59
2022/06/17 08:33:40;;;;;;;11.25;3.05;;;;;;;35.18;29.74;98731.41;5018529;28;20022;-60
2022/06/17 08:36:10;;;;;;;9.73;2.90;;;;;;;33.82;29.87;98727.25;5011535;28;20044;-59
2022/06/17 08:38:43;;;;;;;13.32;3.30;;;;;;;34.53;28.86;98729.84;5012187;28;20517;-58
2022/06/17 08:41:25;;;;;;;14.18;3.50;;;;;;;34.38;29.11;98727.25;5010167;28;20042;-61
2022/06/17 08:44:12;;;;;;;9.85;2.83;;;;;;;35.83;27.86;98724.47;5012085;28;20030;-61
2022/06/17 08:46:52;;;;;;;9.70;3.00;;;;;;;34.44;28.97;98727.50;5010381;28;20411;-59
2022/06/17 08:49:58;;;;;;;13.00;3.33;;;;;;;34.42;29.10;98721.44;5010603;28;20563;-59
2022/06/17 08:52:59;;;;;;;13.02;3.35;;;;;;;34.02;29.23;98721.16;5009747;28;20033;-58
2022/06/17 08:55:25;;;;;;;11.55;3.17;;;;;;;32.57;30.28;98725.53;4971530;28;20037;-59
2022/06/17 08:58:05;;;;;;;11.25;2.90;;;;;;;34.28;28.49;98725.94;5011819;28;20028;-59
2022/06/17 09:01:05;;;;;;;13.57;3.05;;;;;;;35.64;27.14;98726.13;5011353;28;20029;-59
2022/06/17 09:04:12;;;;;;;10.68;3.03;;;;;;;34.35;27.67;98719.56;5011638;28;20660;-59
2022/06/17 09:07:05;;;;;;;9.32;2.45;;;;;;;34.79;26.79;98719.38;4970411;28;20046;-59
2022/06/17 09:09:52;;;;;;;11.05;2.70;;;;;;;34.83;27.41;98717.94;4970050;28;20093;-59
2022/06/17 09:12:59;;;;;;;12.15;3.08;;;;;;;34.71;27.39;98726.63;5001484;28;20617;-61
2022/06/17 09:15:39;;;;;;;9.98;2.72;;;;;;;34.81;28.00;98714.59;4975469;28;20124;-59
2022/06/17 09:18:27;;;;;;;11.25;2.95;;;;;;;34.12;28.80;98710.81;5012064;28;20099;-59
2022/06/17 09:21:01;;;;;;;9.73;2.60;;;;;;;35.16;28.09;98712.63;5008648;28;20058;-59
2022/06/17 09:23:33;;;;;;;11.90;3.10;;;;;;;34.79;27.13;98705.84;5009672;28;20022;-59
2022/06/17 09:25:59;;;;;;;12.60;3.20;;;;;;;34.54;27.70;98709.03;5009236;28;20034;-59
2022/06/17 09:28:33;;;;;;;9.85;2.90;;;;;;;33.53;28.38;98693.88;5020862;28;20096;-60
2022/06/17 09:31:05;;;;;;;10.13;2.95;;;;;;;36.28;27.72;98702.97;5009007;28;20046;-59
2022/06/17 09:33:53;;;;;;;11.73;2.90;;;;;;;35.79;26.70;98696.09;5010530;28;20662;-59
2022/06/17 09:36:28;;;;;;;9.45;2.88;;;;;;;34.97;27.68;98689.84;5009818;28;20034;-59
2022/06/17 09:39:00;;;;;;;11.45;2.70;;;;;;;34.49;28.61;98690.66;5009257;28;20041;-60
2022/06/17 09:41:29;;;;;;;10.15;2.85;;;;;;;34.64;28.68;98686.97;5008923;28;20629;-62
2022/06/17 09:44:06;;;;;;;10.18;2.40;;;;;;;35.00;28.30;98692.16;5010183;28;20030;-61
2022/06/17 09:46:34;;;;;;;10.45;3.03;;;;;;;35.31;27.56;98696.25;5009051;28;20099;-60
2022/06/17 09:49:03;;;;;;;13.57;3.40;;;;;;;33.48;29.54;98693.59;5010472;28;20732;-62
2022/06/17 09:51:38;;;;;;;11.80;2.95;;;;;;;34.81;27.97;98690.19;5008793;28;20084;-59
2022/06/17 09:54:14;;;;;;;9.50;3.03;;;;;;;35.43;27.11;98685.59;5011268;28;20052;-60
2022/06/17 09:57:10;;;;;;;11.48;3.15;;;;;;;34.38;28.87;98677.69;5008727;28;20068;-59
2022/06/17 09:59:45;;;;;;;11.75;3.25;;;;;;;33.98;28.95;98678.22;4990436;28;20080;-59
2022/06/17 10:02:29;;;;;;;13.65;3.20;;;;;;;32.63;31.43;98681.63;5009593;28;20034;-59
2022/06/17 10:04:56;;;;;;;14.05;3.45;;;;;;;33.50;29.69;98680.72;5010403;28;20030;-59
2022/06/17 10:07:35;;;;;;;14.48;3.33;;;;;;;33.23;29.67;98675.06;5008718;28;20030;-60
2022/06/17 10:10:04;;;;;;;18.75;4.07;;;;;;;33.82;28.56;98677.69;5008857;28;20030;-60
2022/06/17 10:12:47;;;;;;;13.07;3.58;;;;;;;33.50;30.13;98669.06;5008172;28;20056;-59
2022/06/17 10:15:22;;;;;;;15.57;3.95;;;;;;;33.40;30.94;98669.41;5009288;28;20034;-59
2022/06/17 10:21:09;;;;;;;14.98;3.97;;;;;;;34.50;29.52;98677.94;5007688;28;20080;-59
2022/06/17 10:23:50;;;;;;;12.23;3.22;;;;;;;31.99;30.44;98672.16;5009933;28;20049;-59
2022/06/17 10:26:43;;;;;;;14.47;3.20;;;;;;;33.92;28.51;98668.19;5007585;28;20037;-60
2022/06/17 10:29:19;;;;;;;14.27;3.35;;;;;;;34.56;28.68;98669.03;5010267;28;20037;-60
2022/06/17 10:31:47;;;;;;;14.07;3.10;;;;;;;35.22;28.08;98673.03;5007546;28;20041;-60
2022/06/17 10:34:20;;;;;;;13.57;3.25;;;;;;;34.73;28.55;98674.97;5008834;28;20041;-59
2022/06/17 10:36:47;;;;;;;11.55;3.20;;;;;;;32.21;31.08;98669.59;5007780;28;20038;-59
2022/06/17 10:39:14;;;;;;;11.88;3.03;;;;;;;32.27;30.26;98664.28;5009475;28;20033;-60
2022/06/17 10:41:41;;;;;;;11.90;3.10;;;;;;;32.73;29.96;98663.25;5009084;28;20034;-59
2022/06/17 10:44:11;;;;;;;11.55;3.20;;;;;;;31.97;30.09;98670.66;5009498;28;20506;-60
2022/06/17 10:46:39;;;;;;;12.32;3.10;;;;;;;33.42;29.51;98661.94;5008340;28;20415;-59
2022/06/17 10:49:29;;;;;;;16.83;3.50;;;;;;;34.26;27.42;98669.31;5010023;28;20030;-60
2022/06/17 10:51:57;;;;;;;9.75;2.95;;;;;;;32.29;29.28;98677.59;5006378;28;20045;-59
2022/06/17 10:54:30;;;;;;;9.98;2.80;;;;;;;32.34;29.10;98667.06;5009442;28;20030;-59
2022/06/17 10:57:06;;;;;;;11.93;2.97;;;;;;;34.44;28.49;98665.22;5007687;28;20410;-60
2022/06/17 10:59:34;;;;;;;15.40;3.10;;;;;;;32.55;29.35;98671.75;5008233;28;20025;-59
2022/06/17 11:02:00;;;;;;;13.23;3.30;;;;;;;33.76;28.42;98673.91;5009726;28;20041;-59
2022/06/17 11:04:33;;;;;;;15.70;3.20;;;;;;;34.35;26.65;98678.06;5009959;28;20033;-60
2022/06/17 11:07:06;;;;;;;11.45;3.00;;;;;;;33.06;29.57;98670.91;5008310;28;20057;-61
2022/06/17 11:09:39;;;;;;;14.48;3.10;;;;;;;33.65;26.49;98672.56;5006928;28;20385;-61
2022/06/17 11:12:16;;;;;;;11.10;2.90;;;;;;;32.17;27.91;98668.31;5008805;28;20044;-62
2022/06/17 11:14:44;;;;;;;12.85;3.33;;;;;;;32.93;28.23;98660.78;5008177;28;20691;-60
2022/06/17 11:17:18;;;;;;;16.17;2.80;;;;;;;32.23;28.92;98660.28;5009212;28;20844;-60
2022/06/17 11:19:46;;;;;;;18.65;3.72;;;;;;;33.48;27.64;98655.75;5008525;28;20107;-59
2022/06/17 11:22:24;;;;;;;14.15;3.40;;;;;;;32.14;29.96;98660.56;5009039;28;20037;-62
2022/06/17 11:24:55;;;;;;;9.50;2.60;;;;;;;33.15;30.22;98648.16;5006526;28;20815;-60
2022/06/17 11:27:41;;;;;;;8.82;2.63;;;;;;;32.94;29.78;98659.75;5009337;28;20038;-59
2022/06/17 11:30:21;;;;;;;15.70;3.55;;;;;;;32.69;29.20;98656.56;5008875;28;20029;-59
2022/06/17 11:32:47;;;;;;;12.50;2.90;;;;;;;31.44;30.49;98657.13;5009943;28;20037;-59
2022/06/17 11:35:37;;;;;;;13.13;3.05;;;;;;;30.65;29.95;98651.88;5010159;28;20110;-59
2022/06/17 11:38:10;;;;;;;13.18;3.15;;;;;;;31.05;30.15;98647.31;5008638;28;20036;-59
2022/06/17 11:40:46;;;;;;;14.38;3.42;;;;;;;31.76;29.94;98645.25;5007629;28;20034;-60
2022/06/17 11:43:25;;;;;;;11.02;3.00;;;;;;;31.56;30.29;98644.06;5010295;28;20080;-59
2022/06/17 11:45:50;;;;;;;12.55;3.00;;;;;;;32.56;29.70;98640.16;5007424;28;20045;-59
2022/06/17 11:48:22;;;;;;;11.57;2.85;;;;;;;32.15;30.09;98636.09;5011118;28;20034;-59
2022/06/17 11:51:02;;;;;;;;;;;;;;;30.58;31.53;98632.03;5007967;28;20471;-59
2022/06/17 11:53:30;;;;;;;13.55;3.00;;;;;;;32.44;29.87;98626.28;5009675;28;20557;-60